Time;durP1;ratioP1;P1;durP2;ratioP2;P2;SDS_P1;SDS_P2;PMS_P1;PMS_P2;Temp;Humidity;BMP_temperature;BMP_pressure;BME280_temperature;BME280_humidity;BME280_pressure;Samples;Min_cycle;Max_cycle;Signal;HPM_P1;HPM_P2
2023/09/22 00:00:18;;;;;;;12.90;11.53;;;;;;;18.18;100.00;92994.81;5072790;28;20201;-87
2023/09/22 00:02:45;;;;;;;13.00;11.80;;;;;;;18.22;100.00;92981.75;5089811;28;20169;-87
2023/09/22 00:05:12;;;;;;;12.77;11.67;;;;;;;18.03;100.00;92989.25;5090519;28;20186;-87
2023/09/22 00:07:38;;;;;;;13.40;11.10;;;;;;;18.04;100.00;92961.78;5089726;28;20182;-86
2023/09/22 00:10:04;;;;;;;12.30;11.13;;;;;;;18.05;100.00;92971.25;5089735;28;20199;-87
2023/09/22 00:12:31;;;;;;;12.33;11.23;;;;;;;18.14;100.00;92977.28;5071799;28;20285;-84
2023/09/22 00:14:58;;;;;;;12.03;10.83;;;;;;;17.90;100.00;92992.88;5088616;28;20197;-83
2023/09/22 00:17:24;;;;;;;11.70;10.67;;;;;;;17.96;100.00;93010.13;5089985;28;20205;-86
2023/09/22 00:19:49;;;;;;;11.43;10.43;;;;;;;18.13;100.00;92978.38;5089051;28;20235;-76
2023/09/22 00:22:15;;;;;;;11.37;10.53;;;;;;;18.02;100.00;92985.09;5089777;28;20185;-80
2023/09/22 00:24:41;;;;;;;13.77;11.53;;;;;;;18.13;100.00;92965.16;5089233;28;20233;-76
2023/09/22 00:27:06;;;;;;;12.23;11.00;;;;;;;18.03;100.00;92981.34;5089656;28;20196;-78
2023/09/22 00:29:32;;;;;;;11.47;10.47;;;;;;;18.19;100.00;92995.59;5088914;28;20289;-77
2023/09/22 00:31:57;;;;;;;14.40;10.93;;;;;;;18.41;100.00;92982.19;5089261;28;20181;-77
2023/09/22 00:34:22;;;;;;;12.13;10.83;;;;;;;18.39;100.00;92979.09;5087726;28;20940;-77
2023/09/22 00:36:52;;;;;;;13.00;9.83;;;;;;;18.41;100.00;92968.97;5089759;28;20206;-75
2023/09/22 00:39:18;;;;;;;13.63;11.40;;;;;;;18.30;100.00;92970.38;5089499;28;20225;-78
2023/09/22 00:41:43;;;;;;;13.07;10.57;;;;;;;18.27;100.00;92971.03;5089398;28;20193;-76
2023/09/22 00:44:08;;;;;;;13.03;10.23;;;;;;;18.25;100.00;92962.63;5088766;28;20222;-77
2023/09/22 00:46:34;;;;;;;11.43;10.33;;;;;;;18.25;100.00;92978.50;5088583;28;20221;-75
2023/09/22 00:49:00;;;;;;;14.00;10.57;;;;;;;18.34;100.00;92976.59;5079127;28;20237;-76
2023/09/22 00:51:26;;;;;;;9.77;8.83;;;;;;;18.54;85.34;92960.03;5085145;28;20180;-77
2023/09/22 00:53:52;;;;;;;13.20;8.50;;;;;;;18.77;88.36;92970.03;5088394;28;20220;-77
2023/09/22 00:56:20;;;;;;;7.73;7.27;;;;;;;18.78;92.73;92926.63;5089008;28;20204;-77
2023/09/22 00:58:47;;;;;;;12.00;10.87;;;;;;;17.95;100.00;92905.50;5088560;28;20217;-77
2023/09/22 01:01:13;;;;;;;17.07;9.13;;;;;;;17.98;100.00;92920.75;5089052;28;20237;-77
2023/09/22 01:03:38;;;;;;;9.47;8.77;;;;;;;17.79;100.00;92917.69;5088532;28;20225;-76
2023/09/22 01:06:09;;;;;;;8.93;8.43;;;;;;;17.55;100.00;92949.88;5089389;28;20177;-74
2023/09/22 01:08:34;;;;;;;10.10;9.10;;;;;;;17.75;100.00;92941.31;5088569;28;20229;-77
2023/09/22 01:11:01;;;;;;;10.90;9.80;;;;;;;17.63;100.00;92943.03;5088579;28;20205;-76
2023/09/22 01:13:27;;;;;;;9.23;8.53;;;;;;;17.65;100.00;92941.63;5088267;28;20225;-77
2023/09/22 01:15:52;;;;;;;14.17;9.63;;;;;;;17.56;100.00;92925.03;5088788;28;20202;-76
2023/09/22 01:18:18;;;;;;;11.43;9.00;;;;;;;17.52;100.00;92935.47;5088437;28;20285;-75
2023/09/22 01:20:44;;;;;;;10.83;9.20;;;;;;;17.34;100.00;92928.59;5088733;28;20178;-76
2023/09/22 01:23:14;;;;;;;10.83;9.80;;;;;;;16.94;100.00;92964.13;5087534;28;20229;-76
2023/09/22 01:25:40;;;;;;;12.00;10.80;;;;;;;17.07;100.00;92970.34;5088773;28;20181;-76
2023/09/22 01:28:07;;;;;;;11.17;10.07;;;;;;;17.19;100.00;92973.16;5088700;28;20232;-76
2023/09/22 01:30:33;;;;;;;14.40;10.07;;;;;;;17.06;100.00;92960.88;5088663;28;20180;-76
2023/09/22 01:33:02;;;;;;;11.10;10.20;;;;;;;17.08;100.00;92966.63;5088193;28;20259;-77
2023/09/22 01:35:29;;;;;;;11.97;10.80;;;;;;;17.02;100.00;92968.63;5088824;28;20291;-77
2023/09/22 01:38:03;;;;;;;11.53;10.40;;;;;;;17.00;100.00;92949.69;5088452;28;20220;-76
2023/09/22 01:40:28;;;;;;;11.40;10.30;;;;;;;17.25;100.00;92967.41;5088245;28;20180;-76
2023/09/22 01:42:54;;;;;;;12.50;10.50;;;;;;;17.21;100.00;92966.47;5088800;28;20291;-76
2023/09/22 01:45:19;;;;;;;11.07;10.07;;;;;;;17.20;100.00;92964.91;5088583;28;20201;-76
2023/09/22 01:47:44;;;;;;;12.33;11.17;;;;;;;16.89;100.00;92959.00;5088515;28;20200;-76
2023/09/22 01:50:10;;;;;;;11.37;10.43;;;;;;;16.87;100.00;92957.75;5088601;28;20219;-76
2023/09/22 01:52:37;;;;;;;11.60;10.63;;;;;;;17.04;100.00;92942.72;5088341;28;20640;-76
2023/09/22 01:55:04;;;;;;;11.90;10.77;;;;;;;16.92;100.00;92920.66;5088947;28;20283;-75
2023/09/22 01:57:29;;;;;;;11.27;10.23;;;;;;;17.08;100.00;92904.09;5088408;28;20277;-74
2023/09/22 01:59:55;;;;;;;11.73;10.57;;;;;;;16.95;100.00;92897.09;5088335;28;20193;-76
2023/09/22 02:02:20;;;;;;;11.23;10.20;;;;;;;16.70;100.00;92889.16;5089057;28;20666;-75
2023/09/22 02:04:45;;;;;;;11.10;10.00;;;;;;;16.75;100.00;92905.59;5087939;28;20217;-75
2023/09/22 02:07:11;;;;;;;11.10;10.10;;;;;;;16.70;100.00;92903.13;5071828;28;20223;-76
2023/09/22 02:09:36;;;;;;;10.80;9.83;;;;;;;16.69;100.00;92916.59;5087699;28;20231;-76
2023/09/22 02:12:02;;;;;;;10.47;9.47;;;;;;;16.78;100.00;92910.25;5088671;28;20184;-76
2023/09/22 02:14:27;;;;;;;9.37;8.80;;;;;;;16.74;100.00;92898.78;5087859;28;20224;-76
2023/09/22 02:16:53;;;;;;;10.13;9.30;;;;;;;16.62;100.00;92876.75;5091860;28;20213;-76
2023/09/22 02:19:18;;;;;;;13.30;10.10;;;;;;;16.56;100.00;92904.34;5091500;28;20221;-77
2023/09/22 02:21:45;;;;;;;11.07;10.07;;;;;;;16.57;100.00;92898.78;5092411;28;20172;-76
2023/09/22 02:24:11;;;;;;;12.93;9.53;;;;;;;16.34;100.00;92896.50;5091426;28;20442;-76
2023/09/22 02:26:36;;;;;;;10.50;9.47;;;;;;;16.50;100.00;92895.78;5092186;28;20196;-76
2023/09/22 02:29:02;;;;;;;13.50;9.20;;;;;;;16.97;100.00;92916.03;5091301;28;20228;-75
2023/09/22 02:31:28;;;;;;;11.03;9.90;;;;;;;16.62;100.00;92911.03;5092070;28;20188;-75
2023/09/22 02:33:53;;;;;;;14.93;10.37;;;;;;;16.55;100.00;92922.00;5091267;28;20253;-75
2023/09/22 02:36:19;;;;;;;11.30;10.17;;;;;;;16.45;100.00;92916.25;5092243;28;20189;-75
2023/09/22 02:38:45;;;;;;;15.07;9.57;;;;;;;16.37;100.00;92904.59;5090937;28;20246;-75
2023/09/22 02:41:14;;;;;;;10.23;9.33;;;;;;;16.25;100.00;92907.00;5091813;28;20228;-75
2023/09/22 02:43:39;;;;;;;11.53;9.83;;;;;;;16.37;100.00;92915.13;5087064;28;20280;-76
2023/09/22 02:46:05;;;;;;;14.57;10.50;;;;;;;16.30;100.00;92925.31;5091775;28;20185;-77
2023/09/22 02:48:30;;;;;;;12.03;11.13;;;;;;;16.21;100.00;92918.47;5090092;28;20224;-76
2023/09/22 02:50:55;;;;;;;11.37;10.23;;;;;;;16.32;100.00;92923.16;5091314;28;20184;-76
2023/09/22 02:53:21;;;;;;;10.63;9.83;;;;;;;16.40;100.00;92926.91;5089843;28;20225;-76
2023/09/22 02:55:46;;;;;;;10.83;9.70;;;;;;;16.32;100.00;92927.66;5091274;28;20200;-77
2023/09/22 02:58:12;;;;;;;10.97;9.30;;;;;;;16.13;100.00;92937.66;5090652;28;21204;-75
2023/09/22 03:00:44;;;;;;;10.63;9.63;;;;;;;16.14;100.00;92929.44;5091335;28;21077;-76
2023/09/22 03:03:12;;;;;;;11.17;10.10;;;;;;;16.16;100.00;92934.41;5090754;28;20216;-76
2023/09/22 03:05:38;;;;;;;14.97;9.73;;;;;;;16.08;100.00;92928.03;5091436;28;20177;-76
2023/09/22 03:08:04;;;;;;;11.03;9.93;;;;;;;16.06;100.00;92930.19;5090646;28;20254;-76
2023/09/22 03:10:33;;;;;;;11.50;9.87;;;;;;;16.10;100.00;92946.94;5073256;28;20199;-77
2023/09/22 03:12:58;;;;;;;12.10;10.47;;;;;;;16.07;100.00;92947.53;5090179;28;20240;-75
2023/09/22 03:15:24;;;;;;;10.57;9.53;;;;;;;16.11;100.00;92951.13;5090936;28;20210;-75
2023/09/22 03:17:50;;;;;;;11.27;9.93;;;;;;;15.96;100.00;92947.03;5089886;28;20224;-76
2023/09/22 03:20:17;;;;;;;10.90;9.77;;;;;;;15.95;100.00;92955.25;5090902;28;20263;-75
2023/09/22 03:22:43;;;;;;;12.77;10.47;;;;;;;16.01;100.00;92954.03;5072529;28;20173;-75
2023/09/22 03:25:09;;;;;;;17.00;10.50;;;;;;;15.94;100.00;92956.31;5090722;28;20242;-76
2023/09/22 03:27:36;;;;;;;10.77;9.67;;;;;;;15.93;100.00;92952.13;5089038;28;20216;-76
2023/09/22 03:30:03;;;;;;;10.53;9.50;;;;;;;15.87;100.00;92948.06;5090693;28;20231;-75
2023/09/22 03:32:29;;;;;;;12.67;10.20;;;;;;;15.73;100.00;92948.16;5090280;28;20181;-75
2023/09/22 03:34:57;;;;;;;10.63;9.77;;;;;;;15.84;100.00;92938.91;5090272;28;20235;-75
2023/09/22 03:37:27;;;;;;;11.00;9.73;;;;;;;15.88;100.00;92921.44;5089780;28;20235;-75
2023/09/22 03:39:52;;;;;;;11.90;10.73;;;;;;;15.86;100.00;92941.22;5090007;28;20280;-75
2023/09/22 03:42:18;;;;;;;18.23;9.63;;;;;;;15.94;100.00;92932.59;5090666;28;20404;-76
2023/09/22 03:44:43;;;;;;;18.90;12.00;;;;;;;15.97;100.00;92938.06;5089852;28;20224;-76
2023/09/22 03:47:08;;;;;;;11.00;9.50;;;;;;;15.94;100.00;92932.59;5090530;28;20173;-76
2023/09/22 03:49:34;;;;;;;11.63;10.73;;;;;;;15.80;100.00;92918.75;5089581;28;20251;-76
2023/09/22 03:51:59;;;;;;;10.50;9.60;;;;;;;15.83;100.00;92910.25;5090260;28;20205;-76
2023/09/22 03:54:24;;;;;;;10.83;9.73;;;;;;;15.65;100.00;92919.94;5089612;28;20209;-74
2023/09/22 03:56:50;;;;;;;10.30;9.33;;;;;;;15.71;100.00;92917.94;5089893;28;20207;-74
2023/09/22 03:59:16;;;;;;;9.50;8.80;;;;;;;15.85;100.00;92923.91;5089612;28;20220;-74
2023/09/22 04:01:42;;;;;;;11.47;10.57;;;;;;;15.82;100.00;92920.03;5090083;28;20935;-74
2023/09/22 04:04:07;;;;;;;10.53;9.67;;;;;;;15.70;100.00;92917.16;5089790;28;20239;-75
2023/09/22 04:06:33;;;;;;;10.07;9.13;;;;;;;15.81;100.00;92915.06;5072860;28;20180;-80
2023/09/22 04:08:58;;;;;;;10.73;9.80;;;;;;;15.75;100.00;92918.91;5082067;28;20229;-84
2023/09/22 04:11:24;;;;;;;12.23;9.90;;;;;;;15.79;100.00;92925.09;5089089;28;20248;-83
2023/09/22 04:13:49;;;;;;;10.47;9.77;;;;;;;15.87;100.00;92927.78;5088325;28;20228;-82
2023/09/22 04:16:14;;;;;;;10.20;9.13;;;;;;;15.71;100.00;92899.50;5085433;28;20266;-86
2023/09/22 04:18:40;;;;;;;10.07;9.37;;;;;;;15.81;100.00;92917.69;5088626;28;20224;-86
2023/09/22 04:21:07;;;;;;;9.87;9.27;;;;;;;15.75;100.00;92930.19;5069175;28;20214;-85
2023/09/22 04:23:34;;;;;;;9.53;8.53;;;;;;;15.75;100.00;92924.16;5088699;28;20325;-86
2023/09/22 04:26:05;;;;;;;11.07;10.10;;;;;;;15.79;100.00;92939.06;5087798;28;20195;-85
2023/09/22 04:28:31;;;;;;;14.03;9.10;;;;;;;15.71;100.00;92928.47;5077552;28;20231;-83
2023/09/22 04:31:00;;;;;;;9.93;8.93;;;;;;;15.80;100.00;92947.72;5072844;28;20209;-85
2023/09/22 04:33:26;;;;;;;14.57;10.20;;;;;;;15.86;100.00;92941.22;5072287;28;20233;-84
2023/09/22 04:35:52;;;;;;;11.00;9.93;;;;;;;15.81;100.00;92930.84;5065199;28;20188;-85
2023/09/22 04:38:18;;;;;;;10.13;9.23;;;;;;;15.82;100.00;92933.19;5081603;28;20236;-84
2023/09/22 04:40:44;;;;;;;10.77;10.07;;;;;;;16.03;100.00;92936.06;5084112;28;20182;-84
2023/09/22 04:43:13;;;;;;;10.40;9.53;;;;;;;15.99;100.00;92940.38;5081794;28;20236;-82
2023/09/22 04:45:43;;;;;;;11.17;9.63;;;;;;;16.09;100.00;92935.63;5088614;28;20180;-85
2023/09/22 04:48:10;;;;;;;11.43;10.67;;;;;;;16.08;100.00;92934.06;5083702;28;20220;-90
2023/09/22 04:50:36;;;;;;;11.47;10.43;;;;;;;16.16;100.00;92940.47;5082776;28;20253;-89
2023/09/22 04:53:02;;;;;;;10.30;9.60;;;;;;;16.18;100.00;92935.66;5088878;28;20221;-92
2023/09/22 04:55:35;;;;;;;11.23;10.20;;;;;;;16.34;100.00;92936.81;5087068;28;20183;-93
2023/09/22 04:58:05;;;;;;;12.23;10.37;;;;;;;16.41;100.00;92942.41;5079318;28;20331;-86
2023/09/22 05:00:33;;;;;;;11.47;10.30;;;;;;;16.54;100.00;92946.03;5089158;28;20185;-90
2023/09/22 05:03:00;;;;;;;11.43;10.53;;;;;;;16.55;100.00;92948.38;5088213;28;20212;-84
2023/09/22 05:05:25;;;;;;;12.93;10.53;;;;;;;16.61;100.00;92947.16;5085713;28;20208;-80
2023/09/22 05:07:51;;;;;;;11.20;10.30;;;;;;;16.57;100.00;92940.16;5085687;28;20233;-76
2023/09/22 05:10:17;;;;;;;10.50;9.80;;;;;;;16.41;100.00;92939.00;5087760;28;20189;-77
2023/09/22 05:12:42;;;;;;;11.20;10.13;;;;;;;16.72;100.00;92943.13;5087611;28;20860;-75
2023/09/22 05:15:08;;;;;;;11.17;10.13;;;;;;;16.83;100.00;92939.13;5081228;28;20180;-76
2023/09/22 05:17:34;;;;;;;13.67;12.47;;;;;;;16.97;100.00;92937.13;5086318;28;20223;-73
2023/09/22 05:20:00;;;;;;;11.23;10.37;;;;;;;16.97;100.00;92958.22;5078052;28;20176;-74
2023/09/22 05:22:25;;;;;;;13.67;11.33;;;;;;;17.19;100.00;92966.03;5077199;28;20207;-72
2023/09/22 05:24:51;;;;;;;11.60;10.50;;;;;;;17.37;100.00;92962.28;5086703;28;20315;-73
2023/09/22 05:27:17;;;;;;;12.83;11.77;;;;;;;17.49;100.00;92962.47;5087852;28;20288;-75
2023/09/22 05:29:42;;;;;;;13.17;11.83;;;;;;;17.79;100.00;92973.16;5061801;28;20247;-74
2023/09/22 05:32:09;;;;;;;12.03;10.87;;;;;;;17.97;100.00;92972.03;5087791;28;20189;-74
2023/09/22 05:34:35;;;;;;;11.73;10.50;;;;;;;18.07;100.00;92974.34;5078982;28;20237;-73
2023/09/22 05:37:00;;;;;;;12.07;10.90;;;;;;;17.90;100.00;92977.03;5088280;28;20223;-74
2023/09/22 05:39:26;;;;;;;11.73;10.60;;;;;;;18.13;100.00;92981.00;5082799;28;20248;-74
2023/09/22 05:41:52;;;;;;;11.37;10.17;;;;;;;18.59;100.00;92983.66;5083121;28;20181;-72
2023/09/22 05:44:17;;;;;;;10.77;9.83;;;;;;;18.72;100.00;92988.75;5087356;28;20233;-72
2023/09/22 05:46:43;;;;;;;12.00;10.87;;;;;;;18.78;100.00;92992.00;5081717;28;20202;-73
2023/09/22 05:49:14;;;;;;;11.57;10.47;;;;;;;18.70;100.00;92990.16;5087018;28;20256;-73
2023/09/22 05:51:40;;;;;;;12.07;10.33;;;;;;;18.73;100.00;92994.81;5090441;28;20186;-72
2023/09/22 05:54:06;;;;;;;12.80;11.03;;;;;;;18.92;100.00;92998.63;5090658;28;20580;-71
2023/09/22 05:56:31;;;;;;;12.20;11.17;;;;;;;18.75;100.00;92992.63;5089118;28;20206;-73
2023/09/22 05:58:57;;;;;;;11.30;10.20;;;;;;;18.93;100.00;92970.25;5090445;28;20268;-76
2023/09/22 06:01:22;;;;;;;12.93;10.60;;;;;;;18.98;100.00;92991.25;5090626;28;20200;-76
2023/09/22 06:03:47;;;;;;;10.57;9.57;;;;;;;19.08;99.21;92967.09;5091123;28;20226;-75
2023/09/22 06:06:14;;;;;;;13.57;9.73;;;;;;;19.45;97.83;92995.34;5090570;28;20188;-84
2023/09/22 06:08:43;;;;;;;14.63;10.23;;;;;;;19.41;97.71;92999.72;5090506;28;20289;-80
2023/09/22 06:11:09;;;;;;;12.57;11.17;;;;;;;19.42;98.23;92996.00;5089853;28;20187;-80
2023/09/22 06:13:36;;;;;;;12.10;11.00;;;;;;;19.46;98.83;92996.88;5091427;28;20228;-81
2023/09/22 06:16:02;;;;;;;11.83;10.57;;;;;;;19.57;99.66;93000.69;5089192;28;20183;-74
2023/09/22 06:18:28;;;;;;;15.53;10.37;;;;;;;19.62;98.00;92987.25;5090857;28;20228;-80
2023/09/22 06:20:58;;;;;;;11.20;10.10;;;;;;;19.81;97.85;93003.47;5091139;28;20186;-80
2023/09/22 06:23:24;;;;;;;11.93;10.37;;;;;;;19.72;97.73;93010.69;5090685;28;20223;-82
2023/09/22 06:25:51;;;;;;;12.73;10.87;;;;;;;19.78;100.00;93003.34;5091244;28;20196;-80
2023/09/22 06:28:18;;;;;;;14.20;11.50;;;;;;;19.42;100.00;93009.22;5089982;28;20235;-83
2023/09/22 06:30:46;;;;;;;14.30;11.10;;;;;;;19.63;100.00;92999.41;5091153;28;20214;-79
2023/09/22 06:33:13;;;;;;;12.70;11.40;;;;;;;20.04;99.66;93017.91;5090930;28;20312;-83
2023/09/22 06:35:39;;;;;;;17.40;12.57;;;;;;;20.01;98.31;93034.47;5086289;28;20273;-82
2023/09/22 06:38:06;;;;;;;14.37;12.90;;;;;;;19.95;98.99;93014.56;5091115;28;20218;-81
2023/09/22 06:40:34;;;;;;;20.80;13.83;;;;;;;19.90;100.00;93029.88;5087263;28;20183;-85
2023/09/22 06:43:00;;;;;;;14.83;13.20;;;;;;;19.93;100.00;93029.22;5090420;28;20240;-85
2023/09/22 06:45:25;;;;;;;15.87;14.23;;;;;;;20.30;97.86;93037.03;5088709;28;20191;-86
2023/09/22 06:47:51;;;;;;;18.03;14.43;;;;;;;20.31;98.43;93040.47;5087580;28;20237;-78
2023/09/22 06:50:17;;;;;;;17.03;15.23;;;;;;;19.80;100.00;93036.34;5081602;28;20199;-83
2023/09/22 06:52:43;;;;;;;18.53;15.63;;;;;;;19.93;100.00;93037.19;5074550;28;21078;-83
2023/09/22 06:55:13;;;;;;;19.80;13.80;;;;;;;20.43;98.51;93043.91;5076004;28;20191;-84
2023/09/22 06:57:42;;;;;;;17.27;13.70;;;;;;;20.44;97.62;93042.81;5085242;28;20212;-83
2023/09/22 07:00:15;;;;;;;14.63;12.57;;;;;;;20.62;92.28;93040.75;5081840;28;20199;-80
2023/09/22 07:02:46;;;;;;;17.33;14.50;;;;;;;20.59;92.00;93038.75;5075410;28;20257;-84
2023/09/22 07:05:12;;;;;;;14.63;13.17;;;;;;;20.67;93.66;93051.91;5090783;28;20945;-80
2023/09/22 07:07:38;;;;;;;18.83;14.57;;;;;;;20.67;95.27;93030.69;5087893;28;20243;-84
2023/09/22 07:10:09;;;;;;;20.30;15.50;;;;;;;20.40;100.00;93052.53;5082193;28;20210;-82
2023/09/22 07:12:38;;;;;;;19.27;15.80;;;;;;;20.21;100.00;93054.13;5088893;28;20234;-83
2023/09/22 07:15:05;;;;;;;22.37;15.67;;;;;;;20.46;100.00;93055.75;5090046;28;20191;-81
2023/09/22 07:17:33;;;;;;;16.23;14.52;;;;;;;20.43;98.77;93038.63;5072157;28;20203;-83
2023/09/22 07:20:00;;;;;;;17.55;14.13;;;;;;;20.58;95.94;93053.91;5090176;28;20216;-79
2023/09/22 07:22:35;;;;;;;15.32;13.57;;;;;;;20.99;92.08;93060.94;5083929;28;20230;-81
2023/09/22 07:25:01;;;;;;;17.60;13.23;;;;;;;20.90;89.91;93049.63;5087184;28;20214;-77
2023/09/22 07:27:27;;;;;;;14.43;12.55;;;;;;;20.88;89.82;93049.19;5086968;28;20211;-77
2023/09/22 07:29:53;;;;;;;16.73;14.13;;;;;;;21.06;91.76;93050.53;5088872;28;20270;-77
2023/09/22 07:32:19;;;;;;;20.42;14.75;;;;;;;21.37;93.91;93060.63;5088838;28;20192;-77
2023/09/22 07:34:45;;;;;;;17.70;15.93;;;;;;;20.80;98.06;93034.13;5088046;28;20239;-77
2023/09/22 07:37:12;;;;;;;23.30;17.65;;;;;;;21.08;97.75;93021.00;5088906;28;20295;-76
2023/09/22 07:39:40;;;;;;;22.98;18.33;;;;;;;21.12;94.98;93040.50;5089111;28;20221;-77
2023/09/22 07:42:06;;;;;;;19.27;16.52;;;;;;;21.21;95.56;93046.44;5069180;28;20176;-76
2023/09/22 07:44:32;;;;;;;18.95;16.45;;;;;;;21.48;92.03;93043.13;5089085;28;20221;-76
2023/09/22 07:46:59;;;;;;;23.73;16.50;;;;;;;20.81;96.11;93050.84;5089213;28;20188;-80
2023/09/22 07:49:26;;;;;;;19.65;14.82;;;;;;;21.34;92.69;93050.66;5084003;28;20262;-81
2023/09/22 07:51:52;;;;;;;18.42;15.82;;;;;;;21.07;93.80;93022.13;5082382;28;20215;-82
2023/09/22 07:54:21;;;;;;;15.73;14.10;;;;;;;21.17;90.16;93053.56;5088296;28;20227;-77
2023/09/22 07:56:47;;;;;;;20.60;15.10;;;;;;;20.81;92.77;93064.13;5071605;28;20207;-77
2023/09/22 07:59:16;;;;;;;24.13;15.48;;;;;;;21.37;88.81;93056.06;5088552;28;20216;-80
2023/09/22 08:01:43;;;;;;;22.85;15.05;;;;;;;21.20;90.06;93058.19;5081386;28;20198;-80
2023/09/22 08:04:11;;;;;;;21.55;14.20;;;;;;;21.52;86.24;93051.97;5070966;28;20230;-79
2023/09/22 08:06:36;;;;;;;18.50;13.50;;;;;;;21.59;85.95;93044.19;5087398;28;20236;-79
2023/09/22 08:09:03;;;;;;;14.90;13.40;;;;;;;21.43;86.74;93059.28;5086882;28;20252;-79
2023/09/22 08:11:29;;;;;;;19.95;14.65;;;;;;;21.03;90.04;93047.78;5089405;28;20191;-75
2023/09/22 08:13:55;;;;;;;15.57;13.75;;;;;;;21.24;88.14;93065.16;5085793;28;20233;-80
2023/09/22 08:16:21;;;;;;;16.10;13.77;;;;;;;21.72;87.16;93048.38;5081239;28;20215;-85
2023/09/22 08:18:47;;;;;;;16.10;12.65;;;;;;;22.03;84.01;93043.22;5089129;28;20224;-82
2023/09/22 08:21:12;;;;;;;14.40;13.10;;;;;;;22.15;82.19;93046.59;5093301;28;20245;-84
2023/09/22 08:23:37;;;;;;;19.38;14.40;;;;;;;22.08;81.40;93056.28;5086507;28;20233;-84
2023/09/22 08:26:05;;;;;;;14.20;12.60;;;;;;;21.88;83.30;93046.59;5084504;28;20190;-82
2023/09/22 08:28:32;;;;;;;18.63;13.63;;;;;;;21.66;84.07;93050.50;5086290;28;20291;-84
2023/09/22 08:30:58;;;;;;;20.38;12.40;;;;;;;21.76;82.08;93057.28;5084962;28;20186;-81
2023/09/22 08:33:23;;;;;;;15.20;13.55;;;;;;;21.32;83.87;93003.19;5084137;28;20251;-81
2023/09/22 08:35:49;;;;;;;19.13;12.77;;;;;;;21.68;84.11;93034.97;5071573;28;20186;-80
2023/09/22 08:38:15;;;;;;;15.95;12.65;;;;;;;22.23;81.19;93053.66;5065730;28;20830;-80
2023/09/22 08:40:41;;;;;;;18.00;12.43;;;;;;;22.37;80.16;93055.94;5086476;28;20919;-81
2023/09/22 08:43:08;;;;;;;14.63;11.65;;;;;;;22.19;80.96;93049.38;5085920;28;20234;-80
2023/09/22 08:45:35;;;;;;;15.35;12.05;;;;;;;22.46;78.90;93043.25;5088339;28;20200;-77
2023/09/22 08:48:01;;;;;;;14.77;11.75;;;;;;;22.16;79.90;93042.06;5086647;28;20240;-80
2023/09/22 08:50:27;;;;;;;13.45;11.85;;;;;;;22.16;78.84;93036.75;5082528;28;20211;-81
2023/09/22 08:52:52;;;;;;;22.35;12.38;;;;;;;22.01;77.36;93040.91;5073995;28;20224;-77
2023/09/22 08:55:19;;;;;;;13.45;11.73;;;;;;;21.91;79.44;93035.28;5087529;28;20186;-85
2023/09/22 08:57:46;;;;;;;18.20;12.05;;;;;;;22.39;78.70;93035.09;5080839;28;20211;-90
2023/09/22 09:00:20;;;;;;;16.42;10.52;;;;;;;22.78;76.23;93036.88;5083250;28;20250;-87
2023/09/22 09:02:54;;;;;;;16.85;11.73;;;;;;;22.45;78.59;93039.03;5074515;28;20178;-86
2023/09/22 09:05:29;;;;;;;12.45;11.00;;;;;;;22.95;75.28;93030.44;5083436;28;20196;-81
2023/09/22 09:08:08;;;;;;;14.98;12.15;;;;;;;22.98;74.13;93008.44;5084462;28;20250;-79
2023/09/22 09:10:35;;;;;;;20.35;11.27;;;;;;;23.07;74.47;93022.34;5080471;28;20183;-80
2023/09/22 09:13:03;;;;;;;16.70;11.65;;;;;;;23.19;72.41;93020.38;5077251;28;20231;-79
2023/09/22 09:15:30;;;;;;;12.40;11.10;;;;;;;23.11;73.74;93021.34;5082237;28;20182;-79
2023/09/22 09:18:03;;;;;;;14.95;12.07;;;;;;;22.46;75.21;93019.28;5087738;28;20238;-78
2023/09/22 09:20:31;;;;;;;16.45;11.32;;;;;;;22.91;73.50;93009.03;5077268;28;20222;-79
2023/09/22 09:22:56;;;;;;;17.27;11.65;;;;;;;22.88;73.61;93004.41;5083798;28;20228;-79
2023/09/22 09:25:22;;;;;;;14.57;11.48;;;;;;;23.46;70.14;93013.38;5078071;28;20219;-79
2023/09/22 09:27:59;;;;;;;14.25;11.90;;;;;;;23.33;70.86;93003.97;5086795;28;20248;-80
2023/09/22 09:30:24;;;;;;;17.05;12.07;;;;;;;22.76;74.71;93004.50;5091751;28;20187;-79
2023/09/22 09:32:49;;;;;;;14.80;11.35;;;;;;;23.29;70.59;92997.78;5092892;28;20276;-77
2023/09/22 09:35:30;;;;;;;15.30;11.90;;;;;;;23.32;72.14;93003.19;5093186;28;20187;-81
2023/09/22 09:38:03;;;;;;;14.95;11.15;;;;;;;23.18;72.12;93000.19;5064090;28;20222;-81
2023/09/22 09:40:29;;;;;;;14.90;11.73;;;;;;;23.60;69.17;92997.69;5089601;28;20195;-86
2023/09/22 09:42:55;;;;;;;14.07;12.18;;;;;;;23.45;71.90;92999.31;5091408;28;20238;-79
2023/09/22 09:45:24;;;;;;;13.25;10.50;;;;;;;23.20;71.00;92981.97;5079150;28;20188;-76
2023/09/22 09:47:54;;;;;;;16.48;11.57;;;;;;;23.26;72.11;92988.59;5085298;28;20241;-78
2023/09/22 09:50:20;;;;;;;17.77;12.05;;;;;;;23.38;72.74;92988.47;5089485;28;20196;-78
2023/09/22 09:52:54;;;;;;;13.50;11.68;;;;;;;23.33;72.97;92988.75;5091405;28;20255;-77
2023/09/22 09:55:21;;;;;;;16.73;12.27;;;;;;;23.64;70.90;92977.22;5079926;28;20321;-76
2023/09/22 09:57:52;;;;;;;17.23;12.35;;;;;;;23.69;70.05;92987.59;5081003;28;20260;-76
2023/09/22 10:00:20;;;;;;;16.75;11.10;;;;;;;23.62;70.14;92990.91;5083815;28;20198;-76
2023/09/22 10:02:51;;;;;;;15.07;11.43;;;;;;;23.90;67.81;92990.72;5079761;28;20206;-76
2023/09/22 10:05:18;;;;;;;13.88;11.05;;;;;;;23.77;67.55;92992.75;5082292;28;20217;-75
2023/09/22 10:07:48;;;;;;;15.40;11.30;;;;;;;23.70;69.00;92984.56;5085068;28;20175;-76
2023/09/22 10:10:20;;;;;;;18.85;12.65;;;;;;;23.57;68.95;92953.06;5081597;28;20213;-79
2023/09/22 10:12:46;;;;;;;16.38;11.45;;;;;;;23.57;68.49;92985.84;5087038;28;20924;-82
2023/09/22 10:15:12;;;;;;;13.40;11.23;;;;;;;23.39;71.51;92992.66;5087455;28;20183;-80
2023/09/22 10:17:38;;;;;;;15.88;11.75;;;;;;;23.48;70.91;92987.94;5090133;28;20245;-81
2023/09/22 10:20:07;;;;;;;12.90;11.60;;;;;;;24.01;69.44;92991.72;5072776;28;20222;-80
2023/09/22 10:22:35;;;;;;;14.75;11.63;;;;;;;23.98;67.99;92991.66;5089276;28;20214;-84
2023/09/22 10:25:13;;;;;;;19.88;10.85;;;;;;;23.84;69.06;92986.78;5087070;28;20183;-85
2023/09/22 10:27:57;;;;;;;21.98;15.23;;;;;;;23.77;71.08;92987.41;5089634;28;20207;-76
2023/09/22 10:30:41;;;;;;;15.73;11.65;;;;;;;23.69;73.08;92990.25;5083388;28;20222;-76
2023/09/22 10:33:22;;;;;;;14.85;11.30;;;;;;;23.72;73.50;92973.59;5075804;28;20243;-76
2023/09/22 10:35:49;;;;;;;14.43;10.35;;;;;;;23.81;71.24;92981.38;5087869;28;20210;-75
2023/09/22 10:38:15;;;;;;;15.23;11.52;;;;;;;23.89;71.32;92983.84;5090666;28;20234;-76
2023/09/22 10:41:04;;;;;;;17.58;11.32;;;;;;;24.25;68.40;92974.63;5090537;28;20222;-75
2023/09/22 10:43:34;;;;;;;15.25;10.93;;;;;;;24.37;69.44;92963.78;5090461;28;20237;-76
2023/09/22 10:45:59;;;;;;;14.68;13.20;;;;;;;24.18;72.17;92971.81;5079455;28;20179;-75
2023/09/22 10:48:34;;;;;;;20.70;12.18;;;;;;;24.20;71.04;92966.91;5072689;28;20233;-76
2023/09/22 10:51:00;;;;;;;16.70;12.52;;;;;;;23.85;73.40;92964.31;5084660;28;20184;-76
2023/09/22 10:53:25;;;;;;;12.95;11.65;;;;;;;23.78;70.70;92962.28;5085243;28;20244;-76
2023/09/22 10:55:51;;;;;;;13.65;11.27;;;;;;;24.27;69.23;92937.69;5088085;28;20198;-77
2023/09/22 10:58:20;;;;;;;17.13;12.73;;;;;;;24.24;71.49;92941.84;5082310;28;20250;-74
2023/09/22 11:00:56;;;;;;;16.48;13.07;;;;;;;24.16;72.44;92950.84;5083064;28;20196;-72
2023/09/22 11:03:23;;;;;;;18.27;11.70;;;;;;;24.34;71.15;92945.81;5090255;28;20242;-78
2023/09/22 11:06:06;;;;;;;19.25;12.30;;;;;;;24.52;71.14;92946.88;5090280;28;20254;-76
2023/09/22 11:08:32;;;;;;;23.05;13.15;;;;;;;24.24;69.67;92949.06;5083416;28;20772;-81
2023/09/22 11:10:58;;;;;;;15.23;11.65;;;;;;;24.32;69.37;92934.72;5091686;28;20190;-79
2023/09/22 11:13:24;;;;;;;21.42;11.07;;;;;;;24.47;68.07;92944.50;5083383;28;20237;-76